createdAt,value
2018-09-17T00:01:40.685Z,97.32
2018-09-17T00:02:40.695Z,98.08
2018-09-17T00:03:40.715Z,97.71
2018-09-17T00:04:40.735Z,98.08
2018-09-17T00:05:40.501Z,98.47
2018-09-17T00:06:40.776Z,98.57
2018-09-17T00:07:55.460Z,97.8
2018-09-17T00:08:40.820Z,97.99
2018-09-17T00:09:40.842Z,97.99
2018-09-17T00:10:40.866Z,97.42
2018-09-17T00:11:40.893Z,97.99
2018-09-17T00:12:40.908Z,97.61
2018-09-17T00:13:40.930Z,97.89
2018-09-17T00:14:40.949Z,97.99
2018-09-17T00:15:40.723Z,98.37
2018-09-17T00:16:40.997Z,98.94
2018-09-17T00:18:41.036Z,97.99
2018-09-17T00:19:41.059Z,97.42
2018-09-17T00:20:41.081Z,97.61
2018-09-17T00:21:41.105Z,98.37
2018-09-17T00:22:41.122Z,98.47
2018-09-17T00:23:55.804Z,98.18
2018-09-17T00:24:41.164Z,98.85
2018-09-17T00:25:41.187Z,99.43
2018-09-17T00:26:41.208Z,99.62
2018-09-17T00:28:41.250Z,99.57
2018-09-17T00:29:41.269Z,99.99
2018-09-17T00:30:41.292Z,99.99
2018-09-17T00:31:41.058Z,99.99
2018-09-17T00:32:41.078Z,99.99
2018-09-17T00:34:41.381Z,99.99
2018-09-17T00:35:41.400Z,99.99
2018-09-17T00:36:41.423Z,99.99
2018-09-17T00:37:41.442Z,99.99
2018-09-17T00:38:41.206Z,99.99
2018-09-17T00:39:56.146Z,99.99
2018-09-17T00:40:41.506Z,99.99
2018-09-17T00:41:41.532Z,99.99
2018-09-17T00:42:41.550Z,99.99
2018-09-17T00:43:41.570Z,99.99
2018-09-17T00:44:41.595Z,99.99
2018-09-17T00:45:41.614Z,99.99
2018-09-17T00:46:41.636Z,99.99
2018-09-17T00:47:41.655Z,99.99
2018-09-17T00:48:41.419Z,99.99
2018-09-17T00:49:41.701Z,99.99
2018-09-17T00:50:41.719Z,99.99
2018-09-17T00:51:41.487Z,99.99
2018-09-17T00:52:41.507Z,99.99
2018-09-17T00:53:41.785Z,99.99
2018-09-17T00:54:41.647Z,99.99
2018-09-17T00:55:56.486Z,99.99
2018-09-17T00:56:41.589Z,99.99
2018-09-17T00:57:41.913Z,99.99
2018-09-17T00:58:41.895Z,99.99
2018-09-17T00:59:41.916Z,99.99
2018-09-17T01:00:41.931Z,99.99
2018-09-17T01:01:41.951Z,99.99
2018-09-17T01:02:41.976Z,99.99
2018-09-17T01:03:41.995Z,99.99
2018-09-17T01:05:42.042Z,99.99
2018-09-17T01:06:42.059Z,99.99
2018-09-17T01:07:42.079Z,99.99
2018-09-17T01:08:42.101Z,99.99
2018-09-17T01:09:42.137Z,99.99
2018-09-17T01:10:56.805Z,99.99
2018-09-17T01:11:42.163Z,99.99
2018-09-17T01:12:42.186Z,99.99
2018-09-17T01:13:42.206Z,99.99
2018-09-17T01:15:42.248Z,99.99
2018-09-17T01:16:42.269Z,99.99
2018-09-17T01:17:42.035Z,99.99
2018-09-17T01:18:42.311Z,99.99
2018-09-17T01:19:42.333Z,99.99
2018-09-17T01:20:42.359Z,99.99
2018-09-17T01:21:42.375Z,99.99
2018-09-17T01:22:42.399Z,99.99
2018-09-17T01:23:42.159Z,99.99
2018-09-17T01:24:42.459Z,99.99
2018-09-17T01:25:42.614Z,99.99
2018-09-17T01:26:42.484Z,99.99
2018-09-17T01:27:42.502Z,99.99
2018-09-17T01:28:42.521Z,99.99
2018-09-17T01:29:42.543Z,99.99
2018-09-17T01:30:42.564Z,99.99
2018-09-17T01:31:42.328Z,99.99
2018-09-17T01:32:42.349Z,99.99
2018-09-17T01:33:42.375Z,99.99
2018-09-17T01:34:42.395Z,99.99
2018-09-17T01:36:42.691Z,99.99
2018-09-17T01:37:42.714Z,99.99
2018-09-17T01:38:42.731Z,99.99
2018-09-17T01:39:42.752Z,99.99
2018-09-17T01:40:42.515Z,99.99
2018-09-17T01:41:42.792Z,99.99
2018-09-17T01:42:57.476Z,99.99
2018-09-17T01:43:42.576Z,99.99
2018-09-17T01:44:42.856Z,99.99
2018-09-17T01:45:42.890Z,99.99
2018-09-17T01:46:42.638Z,99.99
2018-09-17T01:47:42.923Z,99.99
2018-09-17T01:48:42.940Z,99.99
2018-09-17T01:49:42.959Z,99.99
2018-09-17T01:50:42.721Z,99.99
2018-09-17T01:51:42.744Z,99.99
2018-09-17T01:52:42.763Z,99.99
2018-09-17T01:53:43.044Z,99.99
2018-09-17T01:54:42.806Z,99.99
2018-09-17T01:55:43.089Z,99.99
2018-09-17T01:56:43.108Z,99.99
2018-09-17T01:57:42.867Z,99.99
2018-09-17T01:58:57.807Z,99.99
2018-09-17T01:59:43.169Z,99.99
2018-09-17T02:00:43.192Z,99.99
2018-09-17T02:01:42.953Z,99.99
2018-09-17T02:02:43.239Z,99.99
2018-09-17T02:03:43.251Z,99.99
2018-09-17T02:04:43.271Z,99.99
2018-09-17T02:05:43.042Z,99.99
2018-09-17T02:06:43.311Z,99.99
2018-09-17T02:07:43.332Z,99.99
2018-09-17T02:09:43.460Z,99.99
2018-09-17T02:10:43.398Z,99.99
2018-09-17T02:11:43.416Z,99.99
2018-09-17T02:12:43.435Z,99.99
2018-09-17T02:13:43.462Z,99.99
2018-09-17T02:14:58.141Z,99.99
2018-09-17T02:15:43.501Z,99.99
2018-09-17T02:16:43.519Z,99.99
2018-09-17T02:17:43.283Z,99.99
2018-09-17T02:18:43.558Z,99.99
2018-09-17T02:19:43.582Z,99.99
2018-09-17T02:20:43.344Z,99.99
2018-09-17T02:21:43.620Z,99.99
2018-09-17T02:24:43.687Z,99.99
2018-09-17T02:25:43.701Z,99.99
2018-09-17T02:26:43.727Z,99.99
2018-09-17T02:27:43.750Z,99.99
2018-09-17T02:28:43.767Z,99.99
2018-09-17T02:29:43.789Z,99.99
2018-09-17T02:30:58.468Z,99.99
2018-09-17T02:32:43.852Z,99.99
2018-09-17T02:33:43.870Z,99.99
2018-09-17T02:34:43.892Z,99.99
2018-09-17T02:35:43.912Z,99.99
2018-09-17T02:36:43.943Z,99.99
2018-09-17T02:37:43.694Z,99.99
2018-09-17T02:38:43.974Z,99.99
2018-09-17T02:39:43.993Z,99.99
2018-09-17T02:41:44.038Z,99.99
2018-09-17T02:42:44.054Z,99.99
2018-09-17T02:43:44.081Z,99.99
2018-09-17T02:44:44.098Z,99.99
2018-09-17T02:45:58.776Z,99.99
2018-09-17T02:46:44.140Z,99.99
2018-09-17T02:47:44.158Z,99.99
2018-09-17T02:48:43.920Z,99.99
2018-09-17T02:49:44.199Z,99.99
2018-09-17T02:50:43.987Z,99.99
2018-09-17T02:51:43.980Z,99.99
2018-09-17T02:52:44.265Z,99.99
2018-09-17T02:53:44.639Z,99.99
2018-09-17T02:54:44.042Z,99.99
2018-09-17T02:55:44.320Z,99.99
2018-09-17T02:56:44.349Z,99.99
2018-09-17T02:57:44.362Z,99.99
2018-09-17T02:58:44.123Z,99.99
2018-09-17T02:59:44.414Z,99.99
2018-09-17T03:00:44.430Z,99.99
2018-09-17T03:01:44.446Z,99.99
2018-09-17T03:02:44.463Z,99.99
2018-09-17T03:03:44.483Z,99.99
2018-09-17T03:04:44.246Z,99.99
2018-09-17T03:05:44.521Z,99.99
2018-09-17T03:06:44.547Z,99.99
2018-09-17T03:07:44.564Z,99.99
2018-09-17T03:08:44.584Z,99.99
2018-09-17T03:09:44.614Z,99.99
2018-09-17T03:10:44.674Z,99.99
2018-09-17T03:11:44.645Z,99.99
2018-09-17T03:12:44.667Z,99.99
2018-09-17T03:13:44.684Z,99.99
2018-09-17T03:14:44.705Z,99.99
2018-09-17T03:15:44.729Z,99.99
2018-09-17T03:16:44.747Z,99.99
2018-09-17T03:17:59.427Z,99.99
2018-09-17T03:18:44.788Z,99.99
2018-09-17T03:19:44.549Z,99.99
2018-09-17T03:20:44.573Z,99.99
2018-09-17T03:21:44.846Z,99.99
2018-09-17T03:22:44.867Z,99.99
2018-09-17T03:23:44.887Z,99.99
2018-09-17T03:24:44.916Z,99.99
2018-09-17T03:25:44.926Z,99.99
2018-09-17T03:26:44.971Z,99.99
2018-09-17T03:27:44.966Z,99.99
2018-09-17T03:28:44.990Z,99.99
2018-09-17T03:29:45.014Z,99.99
2018-09-17T03:31:45.050Z,99.99
2018-09-17T03:32:45.075Z,99.99
2018-09-17T03:33:59.752Z,99.99
2018-09-17T03:34:45.112Z,99.99
2018-09-17T03:35:45.129Z,99.99
2018-09-17T03:36:45.148Z,99.99
2018-09-17T03:37:45.177Z,99.99
2018-09-17T03:38:45.193Z,99.99
2018-09-17T03:39:45.214Z,99.99
2018-09-17T03:40:44.971Z,99.99
2018-09-17T03:41:45.250Z,99.99
2018-09-17T03:42:45.268Z,99.99
2018-09-17T03:43:45.296Z,99.99
2018-09-17T03:44:45.312Z,99.99
2018-09-17T03:45:45.331Z,99.99
2018-09-17T03:46:45.836Z,99.99
2018-09-17T03:47:45.370Z,99.99
2018-09-17T03:48:45.390Z,99.99
2018-09-17T03:50:00.169Z,99.99
2018-09-17T03:50:45.426Z,99.99
2018-09-17T03:51:45.446Z,99.99
2018-09-17T03:52:45.471Z,99.99
2018-09-17T03:53:45.489Z,99.99
2018-09-17T03:54:45.516Z,99.99
2018-09-17T03:55:45.272Z,99.99
2018-09-17T03:56:45.290Z,99.99
2018-09-17T03:57:45.569Z,99.99
2018-09-17T03:58:45.597Z,99.99
2018-09-17T03:59:45.616Z,99.99
2018-09-17T04:00:45.630Z,99.99
2018-09-17T04:01:45.653Z,99.99
2018-09-17T04:02:45.671Z,99.99
2018-09-17T04:03:45.688Z,99.99
2018-09-17T04:04:45.712Z,99.99
2018-09-17T04:06:00.389Z,99.99
2018-09-17T04:06:45.751Z,99.99
2018-09-17T04:07:45.510Z,99.99
2018-09-17T04:08:45.787Z,99.99
2018-09-17T04:09:45.811Z,99.99
2018-09-17T04:10:45.834Z,99.99
2018-09-17T04:11:45.851Z,99.99
2018-09-17T04:12:45.871Z,99.99
2018-09-17T04:13:45.893Z,99.99
2018-09-17T04:14:45.909Z,99.99
2018-09-17T04:15:45.928Z,99.99
2018-09-17T04:16:45.952Z,99.99
2018-09-17T04:17:45.973Z,99.99
2018-09-17T04:18:45.991Z,99.99
2018-09-17T04:19:46.009Z,99.99
2018-09-17T04:21:00.693Z,99.99
2018-09-17T04:21:46.053Z,99.99
2018-09-17T04:22:46.072Z,99.99
2018-09-17T04:23:46.091Z,99.99
2018-09-17T04:24:46.121Z,99.99
2018-09-17T04:25:46.134Z,99.99
2018-09-17T04:26:46.148Z,99.99
2018-09-17T04:27:46.168Z,99.99
2018-09-17T04:28:46.195Z,99.99
2018-09-17T04:29:45.955Z,99.99
2018-09-17T04:30:46.237Z,99.99
2018-09-17T04:31:46.382Z,99.99
2018-09-17T04:32:46.269Z,99.99
2018-09-17T04:33:46.303Z,99.99
2018-09-17T04:34:46.308Z,99.99
2018-09-17T04:35:46.345Z,99.99
2018-09-17T04:36:46.350Z,99.99
2018-09-17T04:37:46.366Z,99.99
2018-09-17T04:38:46.394Z,99.99
2018-09-17T04:39:46.603Z,99.99
2018-09-17T04:41:46.447Z,99.99
2018-09-17T04:43:46.484Z,99.99
2018-09-17T04:44:46.514Z,99.99
2018-09-17T04:45:46.523Z,99.99
2018-09-17T04:46:46.544Z,99.99
2018-09-17T04:47:46.303Z,99.99
2018-09-17T04:48:46.579Z,99.99
2018-09-17T04:49:46.608Z,99.99
2018-09-17T04:50:46.627Z,99.99
2018-09-17T04:51:46.648Z,99.99
2018-09-17T04:53:01.317Z,99.99
2018-09-17T04:53:46.682Z,99.99
2018-09-17T04:54:46.706Z,99.99
2018-09-17T04:55:46.720Z,99.99
2018-09-17T04:57:46.760Z,99.99
2018-09-17T04:58:46.782Z,99.99
2018-09-17T04:59:46.798Z,99.99
2018-09-17T05:00:46.826Z,99.99
2018-09-17T05:01:46.836Z,99.99
2018-09-17T05:02:46.856Z,99.99
2018-09-17T05:03:46.880Z,99.99
2018-09-17T05:04:46.896Z,99.99
2018-09-17T05:05:46.919Z,99.99
2018-09-17T05:07:46.955Z,99.99
2018-09-17T05:09:01.634Z,99.99
2018-09-17T05:09:46.994Z,99.99
2018-09-17T05:10:47.021Z,99.99
2018-09-17T05:11:47.032Z,99.99
2018-09-17T05:12:47.108Z,99.99
2018-09-17T05:13:47.071Z,99.99
2018-09-17T05:14:47.098Z,99.99
2018-09-17T05:16:47.129Z,99.99
2018-09-17T05:17:47.148Z,99.99
2018-09-17T05:18:47.168Z,99.99
2018-09-17T05:19:47.192Z,99.99
2018-09-17T05:20:47.466Z,99.99
2018-09-17T05:21:47.230Z,99.99
2018-09-17T05:22:47.247Z,99.99
2018-09-17T05:23:47.268Z,99.99
2018-09-17T05:25:01.946Z,99.99
2018-09-17T05:25:47.311Z,99.99
2018-09-17T05:26:47.510Z,99.99
2018-09-17T05:28:47.206Z,99.99
2018-09-17T05:29:47.387Z,99.99
2018-09-17T05:30:47.406Z,99.99
2018-09-17T05:31:47.427Z,99.99
2018-09-17T05:32:47.450Z,99.99
2018-09-17T05:34:47.487Z,99.99
2018-09-17T05:36:47.527Z,99.99
2018-09-17T05:37:47.577Z,99.99
2018-09-17T05:38:47.567Z,99.99
2018-09-17T05:39:47.587Z,99.99
2018-09-17T05:41:02.265Z,99.99
2018-09-17T05:41:47.627Z,99.99
2018-09-17T05:42:47.644Z,99.99
2018-09-17T05:43:47.663Z,99.99
2018-09-17T05:44:47.690Z,99.99
2018-09-17T05:45:47.708Z,99.99
2018-09-17T05:46:47.725Z,99.99
2018-09-17T05:48:47.769Z,99.99
2018-09-17T05:49:47.786Z,99.99
2018-09-17T05:50:47.808Z,99.99
2018-09-17T05:51:47.827Z,99.99
2018-09-17T05:52:47.847Z,99.99
2018-09-17T05:53:48.054Z,99.99
2018-09-17T05:54:47.888Z,99.99
2018-09-17T05:56:02.568Z,99.99
2018-09-17T05:56:47.942Z,99.99
2018-09-17T05:57:47.951Z,99.99
2018-09-17T05:58:47.975Z,99.99
2018-09-17T05:59:48.132Z,99.99
2018-09-17T06:01:48.042Z,99.99
2018-09-17T06:02:48.065Z,99.99
2018-09-17T06:03:48.091Z,99.99
2018-09-17T06:04:48.111Z,99.99
2018-09-17T06:05:48.383Z,99.99
2018-09-17T06:06:48.197Z,99.99
2018-09-17T06:07:48.286Z,99.99
2018-09-17T06:08:48.212Z,99.99
2018-09-17T06:09:48.453Z,99.99
2018-09-17T06:10:48.267Z,96.89
2018-09-17T06:11:48.400Z,95.65
2018-09-17T06:12:48.312Z,93.78
2018-09-17T06:13:48.337Z,92.44
2018-09-17T06:14:48.365Z,90.43
2018-09-17T06:15:48.395Z,87.79
2018-09-17T06:16:48.424Z,86.07
2018-09-17T06:17:48.186Z,84.67
2018-09-17T06:18:48.570Z,83.52
2018-09-17T06:19:48.499Z,82.18
2018-09-17T06:21:48.554Z,79.72
2018-09-17T06:22:48.587Z,79.19
2018-09-17T06:23:48.615Z,78.7
2018-09-17T06:24:48.647Z,78.65
2018-09-17T06:25:48.667Z,78.36
2018-09-17T06:26:48.441Z,77.69
2018-09-17T06:28:03.414Z,78.17
2018-09-17T06:28:49.035Z,77.5
2018-09-17T06:29:48.807Z,77.11
2018-09-17T06:30:48.571Z,76.39
2018-09-17T06:31:48.843Z,75.52
2018-09-17T06:32:48.871Z,74.79
2018-09-17T06:33:48.911Z,73.44
2018-09-17T06:34:48.932Z,73.15
2018-09-17T06:35:48.705Z,73
2018-09-17T06:36:48.745Z,72.9
2018-09-17T06:37:49.035Z,72.32
2018-09-17T06:38:48.796Z,70.68
2018-09-17T06:39:48.827Z,69.76
2018-09-17T06:40:49.127Z,69.47
2018-09-17T06:41:49.149Z,67.93
2018-09-17T06:42:49.178Z,67.39
2018-09-17T06:44:03.873Z,66.62
2018-09-17T06:44:49.288Z,66.65
2018-09-17T06:45:49.020Z,67.61
2018-09-17T06:46:49.306Z,68.23
2018-09-17T06:47:49.337Z,67.71
2018-09-17T06:48:49.370Z,66.11
2018-09-17T06:49:49.399Z,66.11
2018-09-17T06:50:49.172Z,64.86
2018-09-17T06:52:49.248Z,64.31
2018-09-17T06:53:49.611Z,63.44
2018-09-17T06:54:49.562Z,62.89
2018-09-17T06:55:49.592Z,62.18
2018-09-17T06:56:49.727Z,61.54
2018-09-17T06:57:49.658Z,61.06
2018-09-17T06:58:49.691Z,60.68
2018-09-17T07:00:04.385Z,60.77
2018-09-17T07:00:49.755Z,60.58
2018-09-17T07:01:49.786Z,60.22
2018-09-17T07:02:49.816Z,59.83
2018-09-17T07:03:49.855Z,59.83
2018-09-17T07:04:49.884Z,59.93
2018-09-17T07:05:49.916Z,60.51
2018-09-17T07:06:49.955Z,60.58
2018-09-17T07:07:49.980Z,59.64
2018-09-17T07:09:50.052Z,59.45
2018-09-17T07:10:50.086Z,59.55
2018-09-17T07:11:50.117Z,59.52
2018-09-17T07:12:50.146Z,59.06
2018-09-17T07:13:50.179Z,58.19
2018-09-17T07:14:50.210Z,58
2018-09-17T07:16:04.922Z,57.64
2018-09-17T07:16:50.284Z,57.93
2018-09-17T07:17:50.318Z,56.51
2018-09-17T07:18:50.347Z,55.45
2018-09-17T07:19:50.376Z,55.52
2018-09-17T07:20:50.413Z,56.29
2018-09-17T07:21:50.449Z,56
2018-09-17T07:23:50.507Z,55.07
2018-09-17T07:24:50.547Z,55.55
2018-09-17T07:25:50.572Z,54.97
2018-09-17T07:26:50.611Z,54.41
2018-09-17T07:27:50.387Z,53.93
2018-09-17T07:28:50.678Z,53.67
2018-09-17T07:29:50.711Z,53.38
2018-09-17T07:31:05.405Z,53.86
2018-09-17T07:31:50.772Z,53.86
2018-09-17T07:32:50.810Z,53.86
2018-09-17T07:33:50.843Z,53.19
2018-09-17T07:34:50.873Z,52.24
2018-09-17T07:35:50.925Z,52.53
2018-09-17T07:36:50.940Z,52.8
2018-09-17T07:38:50.773Z,51.95
2018-09-17T07:40:51.106Z,50.94
2018-09-17T07:41:51.107Z,50.55
2018-09-17T07:42:50.881Z,50.07
2018-09-17T07:43:51.170Z,49.29
2018-09-17T07:44:51.202Z,49
2018-09-17T07:45:51.237Z,48.93
2018-09-17T07:46:51.268Z,49.12
2018-09-17T07:47:51.101Z,49
2018-09-17T07:48:51.337Z,49.32
2018-09-17T07:50:51.399Z,48.54
2018-09-17T07:51:51.174Z,48.47
2018-09-17T07:52:51.518Z,48.47
2018-09-17T07:53:51.502Z,48.47
2018-09-17T07:54:51.528Z,47.89
2018-09-17T07:55:51.571Z,47.4
2018-09-17T07:56:51.595Z,47.52
2018-09-17T07:57:51.370Z,47.11
2018-09-17T07:58:51.437Z,46.82
2018-09-17T07:59:51.698Z,47.4
2018-09-17T08:00:51.727Z,47.3
2018-09-17T08:01:51.755Z,47.89
2018-09-17T08:03:06.451Z,47.96
2018-09-17T08:03:51.820Z,48.08
2018-09-17T08:04:51.854Z,48.74
2018-09-17T08:05:51.884Z,48.64
2018-09-17T08:06:51.708Z,48.66
2018-09-17T08:07:51.949Z,48.18
2018-09-17T08:08:51.982Z,48.08
2018-09-17T08:11:52.075Z,46.96
2018-09-17T08:12:51.850Z,46.58
2018-09-17T08:13:52.139Z,45.34
2018-09-17T08:14:52.170Z,45.43
2018-09-17T08:15:52.253Z,45.24
2018-09-17T08:16:52.262Z,44.65
2018-09-17T08:17:52.269Z,44.75
2018-09-17T08:19:06.961Z,45.34
2018-09-17T08:19:52.455Z,44.27
2018-09-17T08:20:52.367Z,44.85
2018-09-17T08:21:52.396Z,44.17
2018-09-17T08:22:52.427Z,44.37
2018-09-17T08:23:52.199Z,44.21
2018-09-17T08:25:52.519Z,44.09
2018-09-17T08:26:52.552Z,43.78
2018-09-17T08:27:52.328Z,44.27
2018-09-17T08:29:52.645Z,43.24
2018-09-17T08:30:52.678Z,42.87
2018-09-17T08:31:52.709Z,42.39
2018-09-17T08:32:52.739Z,42.29
2018-09-17T08:33:52.772Z,41.53
2018-09-17T08:35:07.470Z,41.05
2018-09-17T08:35:52.836Z,42.02
2018-09-17T08:36:52.608Z,41.34
2018-09-17T08:37:52.897Z,41.63
2018-09-17T08:38:52.931Z,41.61
2018-09-17T08:39:52.961Z,41.05
2018-09-17T08:40:52.994Z,41.13
2018-09-17T08:41:53.023Z,42.1
2018-09-17T08:43:53.091Z,40.73
2018-09-17T08:45:53.149Z,42.08
2018-09-17T08:46:52.921Z,41.8
2018-09-17T08:47:53.217Z,42.27
2018-09-17T08:48:53.242Z,41.49
2018-09-17T08:49:53.373Z,42.39
2018-09-17T08:51:07.972Z,42.39
2018-09-17T08:51:53.336Z,41.93
2018-09-17T08:52:53.512Z,41.63
2018-09-17T08:53:53.398Z,41.14
2018-09-17T08:54:53.437Z,41.9
2018-09-17T08:55:53.464Z,41.8
2018-09-17T08:56:53.233Z,42.49
2018-09-17T08:57:53.526Z,42.1
2018-09-17T08:58:53.293Z,41.34
2018-09-17T09:00:53.612Z,41.46
2018-09-17T09:02:53.677Z,41.34
2018-09-17T09:03:53.793Z,41.05
2018-09-17T09:04:53.481Z,41.34
2018-09-17T09:06:08.432Z,41.13
2018-09-17T09:06:53.797Z,40.93
2018-09-17T09:08:53.865Z,41.71
2018-09-17T09:09:53.894Z,42.19
2018-09-17T09:10:53.664Z,41.8
2018-09-17T09:11:53.950Z,42.1
2018-09-17T09:13:54.011Z,42.41
2018-09-17T09:14:54.041Z,41.14
2018-09-17T09:15:54.070Z,41.73
2018-09-17T09:16:54.108Z,41.71
2018-09-17T09:17:54.134Z,41.44
2018-09-17T09:18:54.162Z,41.16
2018-09-17T09:19:54.197Z,40.95
2018-09-17T09:20:54.223Z,40
2018-09-17T09:21:54.263Z,40.09
2018-09-17T09:22:54.024Z,39.8
2018-09-17T09:23:54.316Z,39.9
2018-09-17T09:24:54.085Z,40.58
2018-09-17T09:25:54.371Z,40
2018-09-17T09:26:54.403Z,40.68
2018-09-17T09:27:54.433Z,41.05
2018-09-17T09:28:54.206Z,41.34
2018-09-17T09:29:54.490Z,40.83
2018-09-17T09:30:54.683Z,41.24
2018-09-17T09:31:54.555Z,41.03
2018-09-17T09:32:54.591Z,40.95
2018-09-17T09:33:54.624Z,41.13
2018-09-17T09:34:54.383Z,40.93
2018-09-17T09:35:54.672Z,40.93
2018-09-17T09:36:54.701Z,41.22
2018-09-17T09:38:09.481Z,40.95
2018-09-17T09:38:54.760Z,40.19
2018-09-17T09:39:54.792Z,39.98
2018-09-17T09:40:54.818Z,39.69
2018-09-17T09:41:54.850Z,40.47
2018-09-17T09:42:54.879Z,40.06
2018-09-17T09:43:54.909Z,40.44
2018-09-17T09:45:55.029Z,39.61
2018-09-17T09:46:55.006Z,39.12
2018-09-17T09:47:55.029Z,39.04
2018-09-17T09:48:55.056Z,38.95
2018-09-17T09:49:55.089Z,38.95
2018-09-17T09:50:55.117Z,38.95
2018-09-17T09:51:54.890Z,38.65
2018-09-17T09:52:55.176Z,37.97
2018-09-17T09:54:09.870Z,37.99
2018-09-17T09:54:54.985Z,38.09
2018-09-17T09:55:55.272Z,38.28
2018-09-17T09:56:55.296Z,38.18
2018-09-17T09:57:55.071Z,38.46
2018-09-17T09:58:55.358Z,37.7
2018-09-17T09:59:55.405Z,37.5
2018-09-17T10:00:55.169Z,37.21
2018-09-17T10:01:55.459Z,37.5
2018-09-17T10:02:55.491Z,37.21
2018-09-17T10:04:55.537Z,37.99
2018-09-17T10:05:55.572Z,37.6
2018-09-17T10:06:55.601Z,37.5
2018-09-17T10:07:55.627Z,38.46
2018-09-17T10:08:55.657Z,38.24
2018-09-17T10:10:10.350Z,38.64
2018-09-17T10:10:55.719Z,38.54
2018-09-17T10:11:55.749Z,39.03
2018-09-17T10:12:55.783Z,38.64
2018-09-17T10:13:55.809Z,38.62
2018-09-17T10:14:55.838Z,38.62
2018-09-17T10:15:55.612Z,38.62
2018-09-17T10:16:55.900Z,37.92
2018-09-17T10:17:55.671Z,39.08
2018-09-17T10:18:55.961Z,39.55
2018-09-17T10:19:55.993Z,40.03
2018-09-17T10:20:56.020Z,39.67
2018-09-17T10:21:56.050Z,39.45
2018-09-17T10:22:56.079Z,40.15
2018-09-17T10:23:56.109Z,40.06
2018-09-17T10:24:55.881Z,39.76
2018-09-17T10:26:10.832Z,40.23
2018-09-17T10:26:56.196Z,39.57
2018-09-17T10:27:56.231Z,39.36
2018-09-17T10:28:56.258Z,39.57
2018-09-17T10:29:56.094Z,38.98
2018-09-17T10:30:56.318Z,38.79
2018-09-17T10:31:56.089Z,38.98
2018-09-17T10:32:56.378Z,39
2018-09-17T10:33:56.406Z,37.64
2018-09-17T10:34:56.437Z,37.35
2018-09-17T10:35:56.467Z,37.37
2018-09-17T10:36:56.241Z,37.56
2018-09-17T10:37:56.532Z,37.08
2018-09-17T10:38:56.553Z,37.08
2018-09-17T10:39:56.588Z,37.64
2018-09-17T10:41:11.275Z,38.13
2018-09-17T10:41:56.641Z,38.13
2018-09-17T10:42:56.670Z,37.46
2018-09-17T10:43:56.702Z,37.95
2018-09-17T10:44:56.471Z,37.66
2018-09-17T10:45:56.762Z,37.18
2018-09-17T10:46:56.662Z,36.79
2018-09-17T10:47:56.815Z,37.18
2018-09-17T10:49:56.872Z,37.45
2018-09-17T10:50:56.902Z,37.35
2018-09-17T10:51:56.932Z,37.16
2018-09-17T10:52:56.960Z,37.04
2018-09-17T10:53:56.988Z,37.82
2018-09-17T10:54:57.021Z,38.11
2018-09-17T10:55:57.046Z,38.48
2018-09-17T10:56:57.073Z,38.67
2018-09-17T10:57:57.111Z,38.6
2018-09-17T10:58:57.131Z,38.79
2018-09-17T10:59:57.160Z,38.4
2018-09-17T11:00:57.192Z,38.6
2018-09-17T11:01:57.218Z,37.93
2018-09-17T11:02:57.247Z,38.11
2018-09-17T11:04:57.307Z,37.93
2018-09-17T11:05:57.331Z,37.54
2018-09-17T11:06:57.367Z,37.35
2018-09-17T11:07:57.389Z,37.45
2018-09-17T11:09:57.449Z,37.24
2018-09-17T11:10:57.483Z,38.01
2018-09-17T11:11:57.502Z,37.52
2018-09-17T11:13:12.192Z,38.11
2018-09-17T11:13:57.559Z,37.92
2018-09-17T11:14:57.587Z,38.11
2018-09-17T11:15:57.614Z,37.8
2018-09-17T11:16:57.643Z,38.19
2018-09-17T11:17:57.673Z,38.19
2018-09-17T11:18:57.706Z,37.99
2018-09-17T11:19:57.769Z,38.19
2018-09-17T11:20:57.758Z,38.48
2018-09-17T11:21:57.527Z,38.39
2018-09-17T11:22:57.554Z,38.19
2018-09-17T11:23:57.590Z,37.9
2018-09-17T11:24:57.874Z,38.29
2018-09-17T11:25:57.896Z,38.19
2018-09-17T11:26:57.927Z,37.6
2018-09-17T11:27:57.951Z,37.9
2018-09-17T11:29:12.647Z,38.19
2018-09-17T11:29:58.008Z,37.99
2018-09-17T11:30:58.035Z,38.29
2018-09-17T11:31:58.064Z,37.22
2018-09-17T11:32:58.092Z,36.85
2018-09-17T11:33:58.118Z,37.24
2018-09-17T11:34:57.889Z,36.75
2018-09-17T11:35:58.175Z,36.26
2018-09-17T11:36:57.945Z,36.85
2018-09-17T11:37:58.229Z,36.26
2018-09-17T11:38:58.257Z,36.26
2018-09-17T11:39:58.284Z,36.46
2018-09-17T11:40:58.315Z,36.46
2018-09-17T11:41:58.339Z,36.38
2018-09-17T11:42:58.368Z,36.38
2018-09-17T11:43:58.397Z,36.18
2018-09-17T11:45:13.084Z,35.99
2018-09-17T11:45:58.450Z,36.16
2018-09-17T11:46:58.489Z,35.58
2018-09-17T11:47:58.507Z,36.07
2018-09-17T11:48:58.535Z,36.15
2018-09-17T11:49:58.561Z,36.44
2018-09-17T11:50:58.591Z,36.05
2018-09-17T11:51:58.620Z,36.73
2018-09-17T11:52:58.647Z,36.73
2018-09-17T11:53:58.480Z,36.93
2018-09-17T11:54:58.700Z,36.34
2018-09-17T11:56:58.497Z,36.15
2018-09-17T11:57:58.781Z,36.15
2018-09-17T11:58:58.809Z,36.44
2018-09-17T11:59:58.580Z,35.66
2018-09-17T12:01:13.532Z,35.86
2018-09-17T12:01:58.993Z,36.34
2018-09-17T12:02:58.924Z,35.78
2018-09-17T12:03:58.950Z,35.39
2018-09-17T12:04:59.039Z,35.49
2018-09-17T12:06:58.771Z,35.39
2018-09-17T12:07:59.169Z,35.29
2018-09-17T12:08:59.097Z,35.1
2018-09-17T12:09:59.117Z,35.29
2018-09-17T12:10:59.144Z,35.39
2018-09-17T12:11:59.249Z,35.57
2018-09-17T12:12:58.938Z,35.57
2018-09-17T12:13:59.222Z,35.96
2018-09-17T12:14:59.249Z,35.97
2018-09-17T12:16:13.940Z,35.58
2018-09-17T12:16:59.305Z,35.39
2018-09-17T12:17:59.335Z,35.68
2018-09-17T12:18:59.358Z,35.19
2018-09-17T12:19:59.387Z,35.29
2018-09-17T12:20:59.415Z,35
2018-09-17T12:21:59.442Z,35.1
2018-09-17T12:22:59.469Z,34.7
2018-09-17T12:23:59.593Z,34.8
2018-09-17T12:25:59.555Z,34.53
2018-09-17T12:26:59.587Z,34.05
2018-09-17T12:27:59.350Z,34.8
2018-09-17T12:28:59.375Z,34.82
2018-09-17T12:29:59.662Z,34.14
2018-09-17T12:30:59.690Z,34.43
2018-09-17T12:31:59.718Z,34.63
2018-09-17T12:32:59.746Z,33.65
2018-09-17T12:34:59.800Z,33.73
2018-09-17T12:35:59.823Z,34.61
2018-09-17T12:36:59.861Z,34.9
2018-09-17T12:37:59.883Z,34.52
2018-09-17T12:38:59.916Z,34.03
2018-09-17T12:39:59.937Z,34.12
2018-09-17T12:41:00.114Z,34.12
2018-09-17T12:41:59.989Z,33.56
2018-09-17T12:43:00.020Z,34.22
2018-09-17T12:43:59.792Z,34.33
2018-09-17T12:45:00.078Z,33.44
2018-09-17T12:46:59.871Z,34.61
2018-09-17T12:48:14.819Z,34.61
2018-09-17T12:49:00.184Z,33.95
2018-09-17T12:50:00.217Z,34.53
2018-09-17T12:50:59.979Z,33.85
2018-09-17T12:52:00.009Z,33.46
2018-09-17T12:53:00.043Z,33.65
2018-09-17T12:54:00.080Z,33.65
2018-09-17T12:55:00.351Z,33.56
2018-09-17T12:56:00.377Z,33.56
2018-09-17T12:57:00.147Z,34.24
2018-09-17T12:58:00.431Z,34.72
2018-09-17T12:59:00.460Z,33.77
2018-09-17T13:00:00.487Z,33.96
2018-09-17T13:01:00.514Z,33.38
2018-09-17T13:02:00.284Z,33.67
2018-09-17T13:03:00.570Z,33.48
2018-09-17T13:04:15.263Z,33.26
2018-09-17T13:05:00.624Z,33.18
2018-09-17T13:06:00.651Z,33.65
2018-09-17T13:07:00.678Z,34.24
2018-09-17T13:08:00.708Z,33.65
2018-09-17T13:09:00.475Z,33.85
2018-09-17T13:11:00.790Z,33.26
2018-09-17T13:12:00.815Z,33.56
2018-09-17T13:13:00.586Z,33.83
2018-09-17T13:15:00.981Z,34.24
2018-09-17T13:16:00.928Z,34.03
2018-09-17T13:17:00.958Z,34.05
2018-09-17T13:18:00.983Z,34.24
2018-09-17T13:19:01.009Z,33.85
2018-09-17T13:20:15.699Z,33.36
2018-09-17T13:21:01.067Z,34.12
2018-09-17T13:22:01.093Z,34.43
2018-09-17T13:23:01.120Z,34.14
2018-09-17T13:24:01.144Z,33.56
2018-09-17T13:25:01.406Z,32.97
2018-09-17T13:26:01.203Z,32.97
2018-09-17T13:27:01.234Z,32.49
2018-09-17T13:28:01.265Z,33.17
2018-09-17T13:30:01.313Z,32.59
2018-09-17T13:31:01.336Z,32.68
2018-09-17T13:32:01.556Z,33.26
2018-09-17T13:33:01.432Z,33.85
2018-09-17T13:34:01.427Z,33.18
2018-09-17T13:35:01.450Z,33.48
2018-09-17T13:36:16.141Z,32.79
2018-09-17T13:37:01.255Z,33.38
2018-09-17T13:38:01.531Z,32.99
2018-09-17T13:39:01.563Z,32.4
2018-09-17T13:40:01.589Z,32.21
2018-09-17T13:41:01.356Z,32.7
2018-09-17T13:42:01.641Z,31.73
2018-09-17T13:43:01.669Z,32.02
2018-09-17T13:44:01.708Z,32.5
2018-09-17T13:45:01.762Z,32.11
2018-09-17T13:46:01.523Z,32.13
2018-09-17T13:47:01.802Z,32.03
2018-09-17T13:48:01.919Z,32.13